CheckWX is a tool to help pilots better visualize weather data.  It is not intended as a substitute for an official pre-flight weather briefing.

22:11:13 UTC

EPGD TAF
Gdańsk Lech Wałęsa Airport
Gdańsk, Poland
TAF EPGD 161730Z 1618/1718 22010KT 8000 BKN012 TEMPO 1618/1706 23017G30KT 4000 -RA BR BKN007 PROB40 TEMPO 1618/1702 2000 RA BR BKN003 BECMG 1709/1712 BKN020

Oct-16@
18:00 UTC

Oct-16 @ 18:00 UTC

Oct-17@
09:00 UTC

Oct-17 @ 09:00 UTC

TAF EPGD 161730Z 1618/1718 22010KT 8000 BKN012
Wind
  • 220° at 10 KTS
Cloud Levels
  • Broken at 1,200' AGL

Oct-16@
18:00 UTC

Oct-16 @ 18:00 UTC

Oct-17@
02:00 UTC

Oct-17 @ 02:00 UTC

PROB40 TEMPO 1618/1702 2000 RA BR BKN003

Temporary - 40% Likelihood

Temporary - 40% Likelihood during this time.

Conditions
Rain, Mist
Cloud Levels
  • Broken at 300' AGL

Oct-16@
18:00 UTC

Oct-16 @ 18:00 UTC

Oct-17@
06:00 UTC

Oct-17 @ 06:00 UTC

TEMPO 1618/1706 23017G30KT 4000 -RA BR BKN007

Temporary

Temporary Changes expected for less than half the time period

Wind
  • 230° at 17 KTS
  • {Gusting to 30 KTS
Conditions
Light Rain, Mist
Cloud Levels
  • Broken at 700' AGL

Oct-17@
09:00 UTC

Oct-17 @ 09:00 UTC

Oct-17@
18:00 UTC

Oct-17 @ 18:00 UTC

BECMG 1709/1712 BKN020

Becoming

Becoming Conditions expected by Thu, Oct 17, 2019 @ 12:00 UTC

Wind
  • 220° at 10 KTS
Cloud Levels
  • Broken at 2,000' AGL